DAL1213 KMCO-KATL
Flight info
| Callsign | DAL1213 |
|---|---|
| Flight time | N/A |
| Altitude | 30000 |
| Route | JEEMY4 PAINN SHRKS LAIRI LARZZ JJEDI4 |
| Aircraft | B753/M-SDE2E3FGHIJ3J4J7RWXY/LB1 |
Departure
| Time | 2026-05-04 20:24 |
|---|---|
| Airport | Orlando International Airport (KMCO) |
Arrival
| Time | N/A |
|---|---|
| Airport | Hartsfield Jackson Atlanta International Airport (KATL) |
| Time | Latitude | Longitude | Altitude | Speed | Heading |
|---|---|---|---|---|---|
| 2026-05-04 19:48 | 28.42838 | -81.29987 | 90 ft | 0 kts | 286° |
| 2026-05-04 20:07 | 28.42837 | -81.29986 | 90 ft | 1 kts | 286° |
| 2026-05-04 20:07 | 28.42834 | -81.29971 | 90 ft | 1 kts | 286° |
| 2026-05-04 20:07 | 28.42831 | -81.29960 | 90 ft | 2 kts | 282° |
| 2026-05-04 20:08 | 28.42829 | -81.29943 | 90 ft | 2 kts | 267° |
| 2026-05-04 20:08 | 28.42832 | -81.29927 | 91 ft | 2 kts | 255° |
| 2026-05-04 20:08 | 28.42837 | -81.29911 | 91 ft | 2 kts | 243° |
| 2026-05-04 20:08 | 28.42845 | -81.29897 | 91 ft | 2 kts | 231° |
| 2026-05-04 20:09 | 28.42855 | -81.29886 | 91 ft | 2 kts | 218° |
| 2026-05-04 20:09 | 28.42863 | -81.29880 | 92 ft | 1 kts | 210° |
| 2026-05-04 20:09 | 28.42864 | -81.29879 | 92 ft | 0 kts | 210° |
| 2026-05-04 20:12 | 28.42858 | -81.29882 | 91 ft | 2 kts | 202° |
| 2026-05-04 20:12 | 28.42839 | -81.29885 | 91 ft | 3 kts | 178° |
| 2026-05-04 20:13 | 28.42810 | -81.29883 | 91 ft | 5 kts | 178° |
| 2026-05-04 20:13 | 28.42771 | -81.29882 | 90 ft | 6 kts | 179° |
| 2026-05-04 20:13 | 28.42725 | -81.29881 | 89 ft | 6 kts | 179° |
| 2026-05-04 20:13 | 28.42679 | -81.29881 | 89 ft | 6 kts | 179° |
| 2026-05-04 20:14 | 28.42638 | -81.29880 | 89 ft | 5 kts | 176° |
| 2026-05-04 20:14 | 28.42601 | -81.29855 | 89 ft | 7 kts | 116° |
| 2026-05-04 20:14 | 28.42580 | -81.29808 | 89 ft | 5 kts | 138° |
| 2026-05-04 20:14 | 28.42544 | -81.29796 | 89 ft | 5 kts | 179° |
| 2026-05-04 20:15 | 28.42509 | -81.29795 | 89 ft | 5 kts | 178° |
| 2026-05-04 20:15 | 28.42474 | -81.29793 | 89 ft | 5 kts | 178° |
| 2026-05-04 20:15 | 28.42440 | -81.29792 | 90 ft | 4 kts | 178° |
| 2026-05-04 20:15 | 28.42411 | -81.29791 | 90 ft | 3 kts | 178° |
| 2026-05-04 20:16 | 28.42386 | -81.29790 | 91 ft | 3 kts | 179° |
| 2026-05-04 20:16 | 28.42353 | -81.29789 | 91 ft | 7 kts | 179° |
| 2026-05-04 20:16 | 28.42280 | -81.29790 | 91 ft | 13 kts | 181° |
| 2026-05-04 20:16 | 28.42168 | -81.29791 | 92 ft | 18 kts | 180° |
| 2026-05-04 20:17 | 28.42039 | -81.29789 | 92 ft | 17 kts | 179° |
| 2026-05-04 20:17 | 28.41922 | -81.29787 | 92 ft | 16 kts | 179° |
| 2026-05-04 20:17 | 28.41815 | -81.29786 | 92 ft | 14 kts | 179° |
| 2026-05-04 20:17 | 28.41715 | -81.29783 | 91 ft | 13 kts | 178° |
| 2026-05-04 20:18 | 28.41621 | -81.29778 | 90 ft | 12 kts | 180° |
| 2026-05-04 20:18 | 28.41533 | -81.29781 | 89 ft | 11 kts | 182° |
| 2026-05-04 20:18 | 28.41456 | -81.29784 | 89 ft | 10 kts | 182° |
| 2026-05-04 20:18 | 28.41386 | -81.29786 | 88 ft | 9 kts | 179° |
| 2026-05-04 20:19 | 28.41325 | -81.29785 | 88 ft | 8 kts | 179° |
| 2026-05-04 20:19 | 28.41271 | -81.29784 | 87 ft | 7 kts | 179° |
| 2026-05-04 20:19 | 28.41231 | -81.29783 | 87 ft | 6 kts | 179° |
| 2026-05-04 20:19 | 28.41212 | -81.29782 | 87 ft | 6 kts | 179° |
| 2026-05-04 20:20 | 28.41166 | -81.29781 | 86 ft | 6 kts | 179° |
| 2026-05-04 20:20 | 28.41108 | -81.29779 | 86 ft | 9 kts | 179° |
| 2026-05-04 20:20 | 28.41044 | -81.29778 | 85 ft | 8 kts | 179° |
| 2026-05-04 20:20 | 28.40988 | -81.29778 | 85 ft | 7 kts | 179° |
| 2026-05-04 20:21 | 28.40939 | -81.29777 | 84 ft | 6 kts | 179° |
| 2026-05-04 20:21 | 28.40893 | -81.29776 | 84 ft | 6 kts | 179° |
| 2026-05-04 20:21 | 28.40826 | -81.29741 | 83 ft | 5 kts | 107° |
| 2026-05-04 20:22 | 28.40822 | -81.29697 | 83 ft | 5 kts | 92° |
| 2026-05-04 20:22 | 28.40821 | -81.29652 | 83 ft | 6 kts | 91° |
| 2026-05-04 20:22 | 28.40820 | -81.29590 | 83 ft | 8 kts | 81° |
| 2026-05-04 20:22 | 28.40861 | -81.29562 | 84 ft | 6 kts | 2° |
| 2026-05-04 20:23 | 28.40959 | -81.29561 | 85 ft | 31 kts | 360° |
| 2026-05-04 20:23 | 28.41367 | -81.29564 | 89 ft | 86 kts | 360° |
| 2026-05-04 20:23 | 28.42152 | -81.29574 | 90 ft | 135 kts | 358° |
| 2026-05-04 20:23 | 28.43238 | -81.29586 | 150 ft | 171 kts | 6° |
| 2026-05-04 20:24 | 28.44437 | -81.29559 | 499 ft | 181 kts | 8° |
| 2026-05-04 20:24 | 28.45682 | -81.29277 | 1078 ft | 179 kts | 26° |
| 2026-05-04 20:24 | 28.46691 | -81.28503 | 1634 ft | 183 kts | 48° |
| 2026-05-04 20:24 | 28.47681 | -81.27479 | 2102 ft | 201 kts | 41° |
| 2026-05-04 20:25 | 28.48815 | -81.26517 | 2747 ft | 208 kts | 37° |
| 2026-05-04 20:25 | 28.50011 | -81.25588 | 3443 ft | 213 kts | 35° |
| 2026-05-04 20:25 | 28.51343 | -81.24790 | 4025 ft | 227 kts | 16° |
| 2026-05-04 20:25 | 28.52986 | -81.24713 | 4644 ft | 240 kts | 357° |
| 2026-05-04 20:26 | 28.54676 | -81.24781 | 5275 ft | 254 kts | 358° |
| 2026-05-04 20:26 | 28.56511 | -81.24918 | 5870 ft | 270 kts | 355° |
| 2026-05-04 20:26 | 28.58363 | -81.25211 | 6798 ft | 269 kts | 340° |
| 2026-05-04 20:26 | 28.60148 | -81.26025 | 6988 ft | 287 kts | 334° |
| 2026-05-04 20:27 | 28.61985 | -81.26948 | 6971 ft | 285 kts | 335° |
| 2026-05-04 20:27 | 28.63783 | -81.27902 | 7021 ft | 289 kts | 326° |
| 2026-05-04 20:27 | 28.65405 | -81.29240 | 8000 ft | 285 kts | 321° |
| 2026-05-04 20:27 | 28.66959 | -81.30538 | 9016 ft | 283 kts | 322° |
| 2026-05-04 20:28 | 28.68557 | -81.31859 | 9848 ft | 287 kts | 322° |
| 2026-05-04 20:28 | 28.70177 | -81.33220 | 10587 ft | 295 kts | 322° |
| 2026-05-04 20:28 | 28.71874 | -81.34662 | 10957 ft | 315 kts | 321° |
| 2026-05-04 20:28 | 28.73758 | -81.36120 | 11357 ft | 335 kts | 332° |
| 2026-05-04 20:29 | 28.76000 | -81.36987 | 11903 ft | 348 kts | 347° |
| 2026-05-04 20:29 | 28.78388 | -81.37476 | 12738 ft | 350 kts | 347° |
| 2026-05-04 20:29 | 28.80812 | -81.37996 | 13477 ft | 354 kts | 347° |
| 2026-05-04 20:29 | 28.83227 | -81.38507 | 14176 ft | 358 kts | 347° |
| 2026-05-04 20:30 | 28.85704 | -81.39030 | 14895 ft | 362 kts | 346° |
| 2026-05-04 20:30 | 28.88182 | -81.39555 | 15557 ft | 366 kts | 346° |
| 2026-05-04 20:30 | 28.90708 | -81.40089 | 16256 ft | 370 kts | 346° |
| 2026-05-04 20:30 | 28.93197 | -81.40614 | 16884 ft | 374 kts | 345° |
| 2026-05-04 20:31 | 28.95742 | -81.41142 | 17533 ft | 377 kts | 349° |
| 2026-05-04 20:31 | 28.98400 | -81.41460 | 18112 ft | 383 kts | 350° |
| 2026-05-04 20:31 | 29.01061 | -81.41779 | 18729 ft | 385 kts | 349° |
| 2026-05-04 20:31 | 29.03754 | -81.42078 | 19278 ft | 389 kts | 351° |
| 2026-05-04 20:32 | 29.06467 | -81.42338 | 19828 ft | 393 kts | 350° |
| 2026-05-04 20:32 | 29.09223 | -81.42620 | 20382 ft | 395 kts | 350° |
| 2026-05-04 20:32 | 29.11951 | -81.42900 | 20935 ft | 397 kts | 349° |
| 2026-05-04 20:32 | 29.14746 | -81.43199 | 21411 ft | 402 kts | 349° |
| 2026-05-04 20:33 | 29.17517 | -81.43481 | 21943 ft | 404 kts | 349° |
| 2026-05-04 20:33 | 29.20318 | -81.43758 | 22506 ft | 406 kts | 349° |
| 2026-05-04 20:33 | 29.23156 | -81.44035 | 22967 ft | 410 kts | 349° |
| 2026-05-04 20:33 | 29.26036 | -81.44312 | 23531 ft | 412 kts | 349° |
| 2026-05-04 20:34 | 29.28887 | -81.44585 | 24055 ft | 414 kts | 349° |
| 2026-05-04 20:34 | 29.31771 | -81.44861 | 24500 ft | 418 kts | 349° |
| 2026-05-04 20:34 | 29.34664 | -81.45136 | 25032 ft | 419 kts | 349° |
| 2026-05-04 20:34 | 29.37606 | -81.45418 | 25489 ft | 422 kts | 349° |
| 2026-05-04 20:35 | 29.40535 | -81.45697 | 25946 ft | 425 kts | 349° |
| 2026-05-04 20:35 | 29.43479 | -81.45978 | 26416 ft | 427 kts | 349° |
| 2026-05-04 20:35 | 29.46456 | -81.46262 | 26876 ft | 428 kts | 349° |
| 2026-05-04 20:35 | 29.49461 | -81.46549 | 27266 ft | 432 kts | 348° |
| 2026-05-04 20:36 | 29.52464 | -81.46836 | 27694 ft | 434 kts | 348° |
| 2026-05-04 20:36 | 29.55469 | -81.47124 | 28060 ft | 437 kts | 348° |
| 2026-05-04 20:36 | 29.58534 | -81.47414 | 28485 ft | 439 kts | 348° |
| 2026-05-04 20:36 | 29.61619 | -81.47693 | 28810 ft | 443 kts | 348° |
| 2026-05-04 20:37 | 29.64672 | -81.47968 | 29274 ft | 443 kts | 348° |
| 2026-05-04 20:37 | 29.67776 | -81.48251 | 29513 ft | 448 kts | 348° |
| 2026-05-04 20:37 | 29.70894 | -81.48532 | 29999 ft | 446 kts | 348° |
| 2026-05-04 20:37 | 29.73984 | -81.48812 | 30016 ft | 448 kts | 348° |
| 2026-05-04 20:38 | 29.80282 | -81.49387 | 30031 ft | 459 kts | 348° |
| 2026-05-04 20:38 | 29.86746 | -81.49986 | 30031 ft | 471 kts | 347° |
| 2026-05-04 20:39 | 29.93068 | -81.51705 | 30045 ft | 465 kts | 336° |
| 2026-05-04 20:39 | 29.99281 | -81.53825 | 30046 ft | 466 kts | 336° |
| 2026-05-04 20:40 | 30.05439 | -81.56027 | 30043 ft | 465 kts | 336° |
| 2026-05-04 20:40 | 30.11671 | -81.58234 | 30039 ft | 465 kts | 336° |
| 2026-05-04 20:41 | 30.17847 | -81.60470 | 30044 ft | 464 kts | 336° |
| 2026-05-04 20:41 | 30.23983 | -81.62684 | 30048 ft | 464 kts | 336° |
| 2026-05-04 20:42 | 30.30172 | -81.64848 | 30046 ft | 464 kts | 337° |
| 2026-05-04 20:42 | 30.36346 | -81.67008 | 30045 ft | 464 kts | 336° |
| 2026-05-04 20:43 | 30.42560 | -81.69194 | 30065 ft | 464 kts | 336° |
| 2026-05-04 20:43 | 30.48736 | -81.71397 | 30046 ft | 463 kts | 336° |
| 2026-05-04 20:44 | 30.54882 | -81.73608 | 30052 ft | 465 kts | 335° |
| 2026-05-04 20:44 | 30.61031 | -81.75890 | 30048 ft | 461 kts | 334° |
| 2026-05-04 20:45 | 30.66772 | -81.78994 | 30041 ft | 455 kts | 326° |
| 2026-05-04 20:45 | 30.72421 | -81.82313 | 30036 ft | 453 kts | 327° |
| 2026-05-04 20:46 | 30.78065 | -81.85603 | 30025 ft | 452 kts | 327° |
| 2026-05-04 20:46 | 30.83726 | -81.88895 | 30023 ft | 453 kts | 327° |
| 2026-05-04 20:47 | 30.89354 | -81.92165 | 30016 ft | 454 kts | 327° |
| 2026-05-04 20:47 | 30.95037 | -81.95467 | 30020 ft | 453 kts | 327° |
| 2026-05-04 20:48 | 31.00684 | -81.98753 | 30012 ft | 452 kts | 327° |
| 2026-05-04 20:48 | 31.06336 | -82.02033 | 30005 ft | 453 kts | 327° |
| 2026-05-04 20:49 | 31.11998 | -82.05283 | 30009 ft | 451 kts | 327° |
| 2026-05-04 20:49 | 31.17650 | -82.08562 | 30022 ft | 454 kts | 327° |
| 2026-05-04 20:50 | 31.23273 | -82.11840 | 30009 ft | 451 kts | 327° |
| 2026-05-04 20:50 | 31.28913 | -82.15154 | 30019 ft | 454 kts | 327° |
| 2026-05-04 20:51 | 31.34522 | -82.18491 | 30010 ft | 453 kts | 327° |
| 2026-05-04 20:51 | 31.40170 | -82.21787 | 30008 ft | 453 kts | 328° |
| 2026-05-04 20:52 | 31.45837 | -82.25033 | 30013 ft | 453 kts | 328° |
| 2026-05-04 20:52 | 31.51471 | -82.28313 | 30009 ft | 453 kts | 328° |
| 2026-05-04 20:53 | 31.57085 | -82.31649 | 30020 ft | 453 kts | 328° |
| 2026-05-04 20:53 | 31.62732 | -82.35011 | 30014 ft | 453 kts | 327° |
| 2026-05-04 20:54 | 31.68362 | -82.38353 | 30015 ft | 453 kts | 328° |
| 2026-05-04 20:54 | 31.73972 | -82.41679 | 30012 ft | 454 kts | 328° |
| 2026-05-04 20:55 | 31.79594 | -82.45049 | 30013 ft | 453 kts | 327° |
| 2026-05-04 20:55 | 31.85224 | -82.48432 | 30014 ft | 453 kts | 328° |
| 2026-05-04 20:56 | 31.90861 | -82.51801 | 30024 ft | 454 kts | 328° |
| 2026-05-04 20:56 | 31.96349 | -82.55373 | 30026 ft | 450 kts | 319° |
| 2026-05-04 20:57 | 32.01171 | -82.60066 | 30016 ft | 447 kts | 316° |
| 2026-05-04 20:57 | 32.05897 | -82.64760 | 30008 ft | 447 kts | 316° |
| 2026-05-04 20:58 | 32.10669 | -82.69629 | 29409 ft | 454 kts | 315° |
| 2026-05-04 20:58 | 32.12996 | -82.72025 | 28880 ft | 445 kts | 315° |
| 2026-05-04 20:58 | 32.15314 | -82.74406 | 28610 ft | 427 kts | 315° |
| 2026-05-04 20:59 | 32.17500 | -82.76652 | 28582 ft | 409 kts | 315° |
| 2026-05-04 20:59 | 32.19624 | -82.78831 | 28297 ft | 392 kts | 315° |
| 2026-05-04 20:59 | 32.21649 | -82.80913 | 27786 ft | 381 kts | 315° |
| 2026-05-04 20:59 | 32.23634 | -82.82954 | 27335 ft | 382 kts | 314° |
| 2026-05-04 21:00 | 32.25677 | -82.85057 | 26920 ft | 389 kts | 314° |
| 2026-05-04 21:00 | 32.27708 | -82.87144 | 26503 ft | 391 kts | 315° |
| 2026-05-04 21:00 | 32.29747 | -82.89238 | 26115 ft | 386 kts | 315° |
| 2026-05-04 21:00 | 32.31763 | -82.91309 | 25699 ft | 383 kts | 315° |
| 2026-05-04 21:01 | 32.33768 | -82.93348 | 25307 ft | 381 kts | 315° |
| 2026-05-04 21:01 | 32.35775 | -82.95387 | 24938 ft | 380 kts | 315° |
| 2026-05-04 21:01 | 32.37789 | -82.97446 | 24577 ft | 379 kts | 315° |
| 2026-05-04 21:01 | 32.39792 | -82.99487 | 24193 ft | 379 kts | 316° |
| 2026-05-04 21:02 | 32.41781 | -83.01496 | 23805 ft | 378 kts | 316° |
| 2026-05-04 21:02 | 32.43762 | -83.03511 | 23424 ft | 375 kts | 315° |
| 2026-05-04 21:02 | 32.45729 | -83.05523 | 23060 ft | 374 kts | 315° |
| 2026-05-04 21:02 | 32.47702 | -83.07549 | 22705 ft | 373 kts | 315° |
| 2026-05-04 21:03 | 32.49675 | -83.09579 | 22347 ft | 371 kts | 315° |
| 2026-05-04 21:03 | 32.51606 | -83.11567 | 21997 ft | 369 kts | 315° |
| 2026-05-04 21:03 | 32.53530 | -83.13565 | 21654 ft | 367 kts | 315° |
| 2026-05-04 21:03 | 32.55428 | -83.15556 | 21313 ft | 367 kts | 315° |
| 2026-05-04 21:04 | 32.57363 | -83.17575 | 20950 ft | 366 kts | 315° |
| 2026-05-04 21:04 | 32.59261 | -83.19564 | 20635 ft | 364 kts | 315° |
| 2026-05-04 21:04 | 32.61129 | -83.21538 | 20284 ft | 364 kts | 315° |
| 2026-05-04 21:04 | 32.63050 | -83.23552 | 19911 ft | 362 kts | 315° |
| 2026-05-04 21:05 | 32.64923 | -83.25509 | 19549 ft | 360 kts | 316° |
| 2026-05-04 21:05 | 32.66812 | -83.27478 | 19191 ft | 360 kts | 316° |
| 2026-05-04 21:05 | 32.68676 | -83.29420 | 18838 ft | 358 kts | 316° |
| 2026-05-04 21:05 | 32.70538 | -83.31357 | 18488 ft | 356 kts | 316° |
| 2026-05-04 21:06 | 32.72426 | -83.33270 | 18133 ft | 355 kts | 317° |
| 2026-05-04 21:06 | 32.74314 | -83.35182 | 17780 ft | 355 kts | 317° |
| 2026-05-04 21:06 | 32.76152 | -83.37068 | 17432 ft | 353 kts | 317° |
| 2026-05-04 21:06 | 32.78018 | -83.38997 | 17068 ft | 351 kts | 317° |
| 2026-05-04 21:07 | 32.79840 | -83.40887 | 16704 ft | 348 kts | 317° |
| 2026-05-04 21:07 | 32.81661 | -83.42781 | 16345 ft | 346 kts | 317° |
| 2026-05-04 21:07 | 32.83462 | -83.44669 | 16010 ft | 345 kts | 316° |
| 2026-05-04 21:07 | 32.85234 | -83.46584 | 15690 ft | 344 kts | 316° |
| 2026-05-04 21:08 | 32.87013 | -83.48486 | 15366 ft | 343 kts | 317° |
| 2026-05-04 21:08 | 32.88786 | -83.50365 | 15039 ft | 341 kts | 317° |
| 2026-05-04 21:08 | 32.90564 | -83.52228 | 14708 ft | 340 kts | 318° |
| 2026-05-04 21:08 | 32.92357 | -83.54053 | 14357 ft | 339 kts | 318° |
| 2026-05-04 21:09 | 32.94148 | -83.55888 | 14030 ft | 336 kts | 318° |
| 2026-05-04 21:09 | 32.95911 | -83.57711 | 13706 ft | 335 kts | 318° |
| 2026-05-04 21:09 | 32.97659 | -83.59528 | 13358 ft | 334 kts | 317° |
| 2026-05-04 21:09 | 32.99421 | -83.61366 | 13008 ft | 332 kts | 317° |
| 2026-05-04 21:10 | 33.01155 | -83.63179 | 12679 ft | 332 kts | 317° |
| 2026-05-04 21:10 | 33.02891 | -83.64998 | 12335 ft | 332 kts | 317° |
| 2026-05-04 21:10 | 33.04629 | -83.66821 | 11994 ft | 331 kts | 317° |
| 2026-05-04 21:10 | 33.06366 | -83.68644 | 11652 ft | 331 kts | 317° |
| 2026-05-04 21:11 | 33.08089 | -83.70454 | 11308 ft | 331 kts | 317° |
| 2026-05-04 21:11 | 33.09806 | -83.72257 | 10968 ft | 325 kts | 317° |
| 2026-05-04 21:11 | 33.11468 | -83.74004 | 10936 ft | 301 kts | 317° |
| 2026-05-04 21:11 | 33.12970 | -83.75583 | 10943 ft | 283 kts | 317° |
| 2026-05-04 21:12 | 33.14492 | -83.77189 | 10950 ft | 297 kts | 317° |
| 2026-05-04 21:12 | 33.16069 | -83.78857 | 10483 ft | 308 kts | 317° |
| 2026-05-04 21:12 | 33.17644 | -83.80518 | 10296 ft | 290 kts | 317° |
| 2026-05-04 21:12 | 33.19113 | -83.82096 | 9957 ft | 275 kts | 314° |
| 2026-05-04 21:13 | 33.20467 | -83.83706 | 9736 ft | 282 kts | 313° |
| 2026-05-04 21:13 | 33.21896 | -83.85410 | 9434 ft | 288 kts | 313° |
| 2026-05-04 21:13 | 33.23312 | -83.87095 | 9138 ft | 285 kts | 313° |
| 2026-05-04 21:13 | 33.24715 | -83.88766 | 8841 ft | 282 kts | 313° |
| 2026-05-04 21:14 | 33.26093 | -83.90408 | 8561 ft | 281 kts | 313° |
| 2026-05-04 21:14 | 33.27488 | -83.92072 | 8287 ft | 280 kts | 313° |
| 2026-05-04 21:14 | 33.28850 | -83.93697 | 8022 ft | 278 kts | 313° |
| 2026-05-04 21:14 | 33.30217 | -83.95329 | 7854 ft | 275 kts | 313° |
| 2026-05-04 21:15 | 33.31577 | -83.96958 | 7734 ft | 277 kts | 313° |
| 2026-05-04 21:15 | 33.32963 | -83.98616 | 7606 ft | 277 kts | 313° |